sensor_id;sensor_type;location;lat;lon;timestamp;temperature;humidity
7331;DHT22;3706;49.198;7.064;2022-08-03T00:02:11;17.10;99.90
7331;DHT22;3706;49.198;7.064;2022-08-03T00:04:38;17.10;99.90
7331;DHT22;3706;49.198;7.064;2022-08-03T00:07:06;17.10;99.90
7331;DHT22;3706;49.198;7.064;2022-08-03T00:09:33;17.00;99.90
7331;DHT22;3706;49.198;7.064;2022-08-03T00:12:00;16.90;99.90
7331;DHT22;3706;49.198;7.064;2022-08-03T00:14:27;16.70;99.90
7331;DHT22;3706;49.198;7.064;2022-08-03T00:16:55;16.50;99.90
7331;DHT22;3706;49.198;7.064;2022-08-03T00:19:22;16.40;99.90
7331;DHT22;3706;49.198;7.064;2022-08-03T00:21:49;16.20;99.90
7331;DHT22;3706;49.198;7.064;2022-08-03T00:24:16;16.20;99.90
7331;DHT22;3706;49.198;7.064;2022-08-03T00:26:43;16.20;99.90
7331;DHT22;3706;49.198;7.064;2022-08-03T00:29:10;16.20;99.90
7331;DHT22;3706;49.198;7.064;2022-08-03T00:31:37;16.20;99.90
7331;DHT22;3706;49.198;7.064;2022-08-03T00:34:06;16.30;99.90
7331;DHT22;3706;49.198;7.064;2022-08-03T00:36:33;16.60;99.90
7331;DHT22;3706;49.198;7.064;2022-08-03T00:39:00;16.70;99.90
7331;DHT22;3706;49.198;7.064;2022-08-03T00:41:27;16.70;99.90
7331;DHT22;3706;49.198;7.064;2022-08-03T00:43:55;16.60;99.90
7331;DHT22;3706;49.198;7.064;2022-08-03T00:46:21;16.40;99.90
7331;DHT22;3706;49.198;7.064;2022-08-03T00:48:49;16.30;99.90
7331;DHT22;3706;49.198;7.064;2022-08-03T00:51:17;16.10;99.90
7331;DHT22;3706;49.198;7.064;2022-08-03T00:53:45;16.00;99.90
7331;DHT22;3706;49.198;7.064;2022-08-03T00:56:13;15.90;99.90
7331;DHT22;3706;49.198;7.064;2022-08-03T00:58:40;15.90;99.90
7331;DHT22;3706;49.198;7.064;2022-08-03T01:01:09;16.00;99.90
7331;DHT22;3706;49.198;7.064;2022-08-03T01:03:37;15.90;99.90
7331;DHT22;3706;49.198;7.064;2022-08-03T01:06:09;15.80;99.90
7331;DHT22;3706;49.198;7.064;2022-08-03T01:08:45;15.70;99.90
7331;DHT22;3706;49.198;7.064;2022-08-03T01:11:18;15.70;99.90
7331;DHT22;3706;49.198;7.064;2022-08-03T01:13:55;15.70;99.90
7331;DHT22;3706;49.198;7.064;2022-08-03T01:16:27;15.70;99.90
7331;DHT22;3706;49.198;7.064;2022-08-03T01:19:01;15.60;99.90
7331;DHT22;3706;49.198;7.064;2022-08-03T01:21:43;15.60;99.90
7331;DHT22;3706;49.198;7.064;2022-08-03T01:24:21;15.50;99.90
7331;DHT22;3706;49.198;7.064;2022-08-03T01:27:02;15.50;99.90
7331;DHT22;3706;49.198;7.064;2022-08-03T01:29:40;15.50;99.90
7331;DHT22;3706;49.198;7.064;2022-08-03T01:32:14;15.50;99.90
7331;DHT22;3706;49.198;7.064;2022-08-03T01:34:45;15.40;99.90
7331;DHT22;3706;49.198;7.064;2022-08-03T01:37:16;15.30;99.90
7331;DHT22;3706;49.198;7.064;2022-08-03T01:39:44;15.20;99.90
7331;DHT22;3706;49.198;7.064;2022-08-03T01:42:13;15.10;99.90
7331;DHT22;3706;49.198;7.064;2022-08-03T01:44:44;15.10;99.90
7331;DHT22;3706;49.198;7.064;2022-08-03T01:47:14;15.20;99.90
7331;DHT22;3706;49.198;7.064;2022-08-03T01:49:43;15.40;99.90
7331;DHT22;3706;49.198;7.064;2022-08-03T01:52:13;15.40;99.90
7331;DHT22;3706;49.198;7.064;2022-08-03T01:54:47;15.50;99.90
7331;DHT22;3706;49.198;7.064;2022-08-03T01:57:15;15.50;99.90
7331;DHT22;3706;49.198;7.064;2022-08-03T01:59:44;15.40;99.90
7331;DHT22;3706;49.198;7.064;2022-08-03T02:02:14;15.30;99.90
7331;DHT22;3706;49.198;7.064;2022-08-03T02:04:42;15.50;99.90
7331;DHT22;3706;49.198;7.064;2022-08-03T02:07:11;15.70;99.90
7331;DHT22;3706;49.198;7.064;2022-08-03T02:09:40;15.80;99.90
7331;DHT22;3706;49.198;7.064;2022-08-03T02:12:08;15.60;99.90
7331;DHT22;3706;49.198;7.064;2022-08-03T02:14:37;15.50;99.90
7331;DHT22;3706;49.198;7.064;2022-08-03T02:17:07;15.40;99.90
7331;DHT22;3706;49.198;7.064;2022-08-03T02:19:35;15.30;99.90
7331;DHT22;3706;49.198;7.064;2022-08-03T02:22:04;15.20;99.90
7331;DHT22;3706;49.198;7.064;2022-08-03T02:24:34;15.20;99.90
7331;DHT22;3706;49.198;7.064;2022-08-03T02:27:04;15.20;99.90
7331;DHT22;3706;49.198;7.064;2022-08-03T02:29:33;15.20;99.90
7331;DHT22;3706;49.198;7.064;2022-08-03T02:32:02;15.20;99.90
7331;DHT22;3706;49.198;7.064;2022-08-03T02:34:33;15.30;99.90
7331;DHT22;3706;49.198;7.064;2022-08-03T02:37:01;15.30;99.90
7331;DHT22;3706;49.198;7.064;2022-08-03T02:39:30;15.20;99.90
7331;DHT22;3706;49.198;7.064;2022-08-03T02:41:59;15.10;99.90
7331;DHT22;3706;49.198;7.064;2022-08-03T02:44:30;15.10;99.90
7331;DHT22;3706;49.198;7.064;2022-08-03T02:47:01;14.90;99.90
7331;DHT22;3706;49.198;7.064;2022-08-03T02:49:31;14.80;99.90
7331;DHT22;3706;49.198;7.064;2022-08-03T02:52:00;14.90;99.90
7331;DHT22;3706;49.198;7.064;2022-08-03T02:54:29;15.00;99.90
7331;DHT22;3706;49.198;7.064;2022-08-03T02:56:59;15.00;99.90
7331;DHT22;3706;49.198;7.064;2022-08-03T02:59:27;15.10;99.90
7331;DHT22;3706;49.198;7.064;2022-08-03T03:01:56;14.90;99.90
7331;DHT22;3706;49.198;7.064;2022-08-03T03:04:24;14.80;99.90
7331;DHT22;3706;49.198;7.064;2022-08-03T03:06:53;14.80;99.90
7331;DHT22;3706;49.198;7.064;2022-08-03T03:09:24;14.70;99.90
7331;DHT22;3706;49.198;7.064;2022-08-03T03:11:52;14.60;99.90
7331;DHT22;3706;49.198;7.064;2022-08-03T03:14:20;14.60;99.90
7331;DHT22;3706;49.198;7.064;2022-08-03T03:16:47;14.70;99.90
7331;DHT22;3706;49.198;7.064;2022-08-03T03:19:15;14.70;99.90
7331;DHT22;3706;49.198;7.064;2022-08-03T03:21:44;14.80;99.90
7331;DHT22;3706;49.198;7.064;2022-08-03T03:24:13;14.80;99.90
7331;DHT22;3706;49.198;7.064;2022-08-03T03:26:41;14.80;99.90
7331;DHT22;3706;49.198;7.064;2022-08-03T03:29:09;14.70;99.90
7331;DHT22;3706;49.198;7.064;2022-08-03T03:31:36;14.60;99.90
7331;DHT22;3706;49.198;7.064;2022-08-03T03:34:03;14.50;99.90
7331;DHT22;3706;49.198;7.064;2022-08-03T03:36:30;14.50;99.90
7331;DHT22;3706;49.198;7.064;2022-08-03T03:38:57;14.50;99.90
7331;DHT22;3706;49.198;7.064;2022-08-03T03:41:26;14.40;99.90
7331;DHT22;3706;49.198;7.064;2022-08-03T03:43:53;14.40;99.90
7331;DHT22;3706;49.198;7.064;2022-08-03T03:46:21;14.40;99.90
7331;DHT22;3706;49.198;7.064;2022-08-03T03:48:48;14.40;99.90
7331;DHT22;3706;49.198;7.064;2022-08-03T03:51:15;14.40;99.90
7331;DHT22;3706;49.198;7.064;2022-08-03T03:53:54;14.40;99.90
7331;DHT22;3706;49.198;7.064;2022-08-03T03:56:21;14.40;99.90
7331;DHT22;3706;49.198;7.064;2022-08-03T03:58:50;14.40;99.90
7331;DHT22;3706;49.198;7.064;2022-08-03T04:01:17;14.40;99.90
7331;DHT22;3706;49.198;7.064;2022-08-03T04:03:45;14.40;99.90
7331;DHT22;3706;49.198;7.064;2022-08-03T04:06:12;14.50;99.90
7331;DHT22;3706;49.198;7.064;2022-08-03T04:08:57;14.50;99.90
7331;DHT22;3706;49.198;7.064;2022-08-03T04:11:46;14.40;99.90
7331;DHT22;3706;49.198;7.064;2022-08-03T04:14:18;14.40;99.90
7331;DHT22;3706;49.198;7.064;2022-08-03T04:16:49;14.40;99.90
7331;DHT22;3706;49.198;7.064;2022-08-03T04:19:22;14.40;99.90
7331;DHT22;3706;49.198;7.064;2022-08-03T04:21:53;14.40;99.90
7331;DHT22;3706;49.198;7.064;2022-08-03T04:24:21;14.50;99.90
7331;DHT22;3706;49.198;7.064;2022-08-03T04:26:49;14.60;99.90
7331;DHT22;3706;49.198;7.064;2022-08-03T04:29:18;14.70;99.90
7331;DHT22;3706;49.198;7.064;2022-08-03T04:31:47;14.70;99.90
7331;DHT22;3706;49.198;7.064;2022-08-03T04:34:15;14.80;99.90
7331;DHT22;3706;49.198;7.064;2022-08-03T04:36:47;14.80;99.90
7331;DHT22;3706;49.198;7.064;2022-08-03T04:39:18;14.90;99.90
7331;DHT22;3706;49.198;7.064;2022-08-03T04:41:52;14.90;99.90
7331;DHT22;3706;49.198;7.064;2022-08-03T04:44:23;14.90;99.90
7331;DHT22;3706;49.198;7.064;2022-08-03T04:46:51;14.90;99.90
7331;DHT22;3706;49.198;7.064;2022-08-03T04:49:19;14.90;99.90
7331;DHT22;3706;49.198;7.064;2022-08-03T04:51:47;14.80;99.90
7331;DHT22;3706;49.198;7.064;2022-08-03T04:54:15;14.90;99.90
7331;DHT22;3706;49.198;7.064;2022-08-03T04:56:42;15.10;99.90
7331;DHT22;3706;49.198;7.064;2022-08-03T04:59:10;15.20;99.90
7331;DHT22;3706;49.198;7.064;2022-08-03T05:01:39;15.30;99.90
7331;DHT22;3706;49.198;7.064;2022-08-03T05:04:06;15.20;99.90
7331;DHT22;3706;49.198;7.064;2022-08-03T05:06:33;15.20;99.90
7331;DHT22;3706;49.198;7.064;2022-08-03T05:09:00;15.30;99.90
7331;DHT22;3706;49.198;7.064;2022-08-03T05:11:27;15.20;99.90
7331;DHT22;3706;49.198;7.064;2022-08-03T05:13:54;15.30;99.90
7331;DHT22;3706;49.198;7.064;2022-08-03T05:16:21;15.30;99.90
7331;DHT22;3706;49.198;7.064;2022-08-03T05:18:54;15.50;99.90
7331;DHT22;3706;49.198;7.064;2022-08-03T05:21:21;15.70;99.90
7331;DHT22;3706;49.198;7.064;2022-08-03T05:23:48;16.20;99.90
7331;DHT22;3706;49.198;7.064;2022-08-03T05:26:16;17.20;99.90
7331;DHT22;3706;49.198;7.064;2022-08-03T05:28:43;18.30;99.90
7331;DHT22;3706;49.198;7.064;2022-08-03T05:31:09;19.50;99.90
7331;DHT22;3706;49.198;7.064;2022-08-03T05:33:38;20.80;99.90
7331;DHT22;3706;49.198;7.064;2022-08-03T05:36:07;22.10;99.90
7331;DHT22;3706;49.198;7.064;2022-08-03T05:38:34;23.20;99.90
7331;DHT22;3706;49.198;7.064;2022-08-03T05:41:02;24.20;99.90
7331;DHT22;3706;49.198;7.064;2022-08-03T05:43:29;25.20;99.40
7331;DHT22;3706;49.198;7.064;2022-08-03T05:45:56;26.10;95.70
7331;DHT22;3706;49.198;7.064;2022-08-03T05:48:24;26.80;92.60
7331;DHT22;3706;49.198;7.064;2022-08-03T05:50:51;27.50;90.40
7331;DHT22;3706;49.198;7.064;2022-08-03T05:53:19;28.10;86.80
7331;DHT22;3706;49.198;7.064;2022-08-03T05:55:46;28.80;82.60
7331;DHT22;3706;49.198;7.064;2022-08-03T05:58:13;29.40;79.60
7331;DHT22;3706;49.198;7.064;2022-08-03T06:00:41;30.00;76.70
7331;DHT22;3706;49.198;7.064;2022-08-03T06:03:08;30.40;73.20
7331;DHT22;3706;49.198;7.064;2022-08-03T06:05:35;30.50;71.80
7331;DHT22;3706;49.198;7.064;2022-08-03T06:08:02;30.70;71.00
7331;DHT22;3706;49.198;7.064;2022-08-03T06:10:30;31.00;70.00
7331;DHT22;3706;49.198;7.064;2022-08-03T06:12:57;31.60;68.80
7331;DHT22;3706;49.198;7.064;2022-08-03T06:15:24;32.20;67.00
7331;DHT22;3706;49.198;7.064;2022-08-03T06:17:51;32.90;65.20
7331;DHT22;3706;49.198;7.064;2022-08-03T06:20:20;33.40;63.40
7331;DHT22;3706;49.198;7.064;2022-08-03T06:22:47;33.50;61.80
7331;DHT22;3706;49.198;7.064;2022-08-03T06:25:17;33.50;62.00
7331;DHT22;3706;49.198;7.064;2022-08-03T06:27:46;33.50;61.70
7331;DHT22;3706;49.198;7.064;2022-08-03T06:30:13;33.50;61.00
7331;DHT22;3706;49.198;7.064;2022-08-03T06:32:41;33.50;60.60
7331;DHT22;3706;49.198;7.064;2022-08-03T06:35:09;33.70;60.40
7331;DHT22;3706;49.198;7.064;2022-08-03T06:37:43;34.00;60.00
7331;DHT22;3706;49.198;7.064;2022-08-03T06:40:11;34.40;59.40
7331;DHT22;3706;49.198;7.064;2022-08-03T06:42:39;34.90;58.30
7331;DHT22;3706;49.198;7.064;2022-08-03T06:45:10;35.50;57.10
7331;DHT22;3706;49.198;7.064;2022-08-03T06:47:38;35.80;55.90
7331;DHT22;3706;49.198;7.064;2022-08-03T06:50:06;36.10;55.50
7331;DHT22;3706;49.198;7.064;2022-08-03T06:52:34;36.10;55.00
7331;DHT22;3706;49.198;7.064;2022-08-03T06:55:01;36.00;54.90
7331;DHT22;3706;49.198;7.064;2022-08-03T06:57:28;36.00;54.90
7331;DHT22;3706;49.198;7.064;2022-08-03T06:59:55;35.90;55.00
7331;DHT22;3706;49.198;7.064;2022-08-03T07:02:27;35.80;55.30
7331;DHT22;3706;49.198;7.064;2022-08-03T07:04:55;35.80;55.40
7331;DHT22;3706;49.198;7.064;2022-08-03T07:07:22;35.70;55.90
7331;DHT22;3706;49.198;7.064;2022-08-03T07:09:49;35.50;56.30
7331;DHT22;3706;49.198;7.064;2022-08-03T07:12:16;35.30;56.80
7331;DHT22;3706;49.198;7.064;2022-08-03T07:14:43;35.30;57.00
7331;DHT22;3706;49.198;7.064;2022-08-03T07:17:10;35.30;56.90
7331;DHT22;3706;49.198;7.064;2022-08-03T07:19:38;35.40;56.80
7331;DHT22;3706;49.198;7.064;2022-08-03T07:22:05;35.50;56.50
7331;DHT22;3706;49.198;7.064;2022-08-03T07:24:33;35.60;56.10
7331;DHT22;3706;49.198;7.064;2022-08-03T07:27:00;35.60;55.90
7331;DHT22;3706;49.198;7.064;2022-08-03T07:29:27;35.70;55.90
7331;DHT22;3706;49.198;7.064;2022-08-03T07:31:54;35.80;55.60
7331;DHT22;3706;49.198;7.064;2022-08-03T07:34:21;36.20;55.30
7331;DHT22;3706;49.198;7.064;2022-08-03T07:36:50;36.40;54.80
7331;DHT22;3706;49.198;7.064;2022-08-03T07:39:17;36.70;54.30
7331;DHT22;3706;49.198;7.064;2022-08-03T07:41:46;36.80;53.90
7331;DHT22;3706;49.198;7.064;2022-08-03T07:44:16;37.00;53.90
7331;DHT22;3706;49.198;7.064;2022-08-03T07:46:44;37.40;53.20
7331;DHT22;3706;49.198;7.064;2022-08-03T07:49:11;37.60;52.80
7331;DHT22;3706;49.198;7.064;2022-08-03T07:51:41;37.80;52.30
7331;DHT22;3706;49.198;7.064;2022-08-03T07:54:10;37.80;52.00
7331;DHT22;3706;49.198;7.064;2022-08-03T07:56:37;37.70;51.90
7331;DHT22;3706;49.198;7.064;2022-08-03T07:59:05;37.90;51.80
7331;DHT22;3706;49.198;7.064;2022-08-03T08:01:33;38.10;51.30
7331;DHT22;3706;49.198;7.064;2022-08-03T08:04:04;38.70;50.80
7331;DHT22;3706;49.198;7.064;2022-08-03T08:06:32;39.30;49.20
7331;DHT22;3706;49.198;7.064;2022-08-03T08:09:01;39.70;47.90
7331;DHT22;3706;49.198;7.064;2022-08-03T08:11:29;40.10;47.80
7331;DHT22;3706;49.198;7.064;2022-08-03T08:13:56;40.40;47.10
7331;DHT22;3706;49.198;7.064;2022-08-03T08:16:27;40.50;46.20
7331;DHT22;3706;49.198;7.064;2022-08-03T08:18:56;40.80;46.30
7331;DHT22;3706;49.198;7.064;2022-08-03T08:21:23;41.00;45.40
7331;DHT22;3706;49.198;7.064;2022-08-03T08:23:50;41.50;44.20
7331;DHT22;3706;49.198;7.064;2022-08-03T08:26:17;42.20;42.70
7331;DHT22;3706;49.198;7.064;2022-08-03T08:28:45;43.00;41.00
7331;DHT22;3706;49.198;7.064;2022-08-03T08:31:12;43.70;39.40
7331;DHT22;3706;49.198;7.064;2022-08-03T08:33:39;44.50;37.60
7331;DHT22;3706;49.198;7.064;2022-08-03T08:36:06;45.20;36.00
7331;DHT22;3706;49.198;7.064;2022-08-03T08:38:34;45.60;35.70
7331;DHT22;3706;49.198;7.064;2022-08-03T08:41:01;45.90;35.50
7331;DHT22;3706;49.198;7.064;2022-08-03T08:43:28;45.90;35.80
7331;DHT22;3706;49.198;7.064;2022-08-03T08:45:58;46.00;35.40
7331;DHT22;3706;49.198;7.064;2022-08-03T08:51:34;46.20;34.00
7331;DHT22;3706;49.198;7.064;2022-08-03T08:54:06;46.50;33.50
7331;DHT22;3706;49.198;7.064;2022-08-03T08:56:35;46.30;33.90
7331;DHT22;3706;49.198;7.064;2022-08-03T08:59:03;46.00;33.80
7331;DHT22;3706;49.198;7.064;2022-08-03T09:01:32;45.50;33.90
7331;DHT22;3706;49.198;7.064;2022-08-03T09:03:59;45.10;34.50
7331;DHT22;3706;49.198;7.064;2022-08-03T09:06:26;45.10;34.30
7331;DHT22;3706;49.198;7.064;2022-08-03T09:08:53;45.20;34.50
7331;DHT22;3706;49.198;7.064;2022-08-03T09:11:21;45.50;34.40
7331;DHT22;3706;49.198;7.064;2022-08-03T09:13:48;45.80;33.90
7331;DHT22;3706;49.198;7.064;2022-08-03T09:16:18;46.00;33.60
7331;DHT22;3706;49.198;7.064;2022-08-03T09:18:53;46.30;33.80
7331;DHT22;3706;49.198;7.064;2022-08-03T09:21:22;46.70;33.20
7331;DHT22;3706;49.198;7.064;2022-08-03T09:23:51;46.30;33.40
7331;DHT22;3706;49.198;7.064;2022-08-03T09:26:21;45.50;34.30
7331;DHT22;3706;49.198;7.064;2022-08-03T09:28:54;44.70;35.10
7331;DHT22;3706;49.198;7.064;2022-08-03T09:31:33;44.50;35.00
7331;DHT22;3706;49.198;7.064;2022-08-03T09:34:06;44.10;35.00
7331;DHT22;3706;49.198;7.064;2022-08-03T09:36:38;43.60;35.50
7331;DHT22;3706;49.198;7.064;2022-08-03T09:39:07;43.50;36.10
7331;DHT22;3706;49.198;7.064;2022-08-03T09:41:37;43.40;36.30
7331;DHT22;3706;49.198;7.064;2022-08-03T09:44:05;43.90;35.70
7331;DHT22;3706;49.198;7.064;2022-08-03T09:46:47;44.40;34.90
7331;DHT22;3706;49.198;7.064;2022-08-03T09:49:16;44.40;34.90
7331;DHT22;3706;49.198;7.064;2022-08-03T09:51:45;44.90;34.40
7331;DHT22;3706;49.198;7.064;2022-08-03T09:54:12;45.40;33.80
7331;DHT22;3706;49.198;7.064;2022-08-03T09:56:40;45.70;33.00
7331;DHT22;3706;49.198;7.064;2022-08-03T09:59:08;45.50;33.00
7331;DHT22;3706;49.198;7.064;2022-08-03T10:01:37;45.10;33.70
7331;DHT22;3706;49.198;7.064;2022-08-03T10:04:11;45.00;33.30
7331;DHT22;3706;49.198;7.064;2022-08-03T10:06:41;44.60;33.50
7331;DHT22;3706;49.198;7.064;2022-08-03T10:09:10;44.50;33.60
7331;DHT22;3706;49.198;7.064;2022-08-03T10:11:39;44.40;33.50
7331;DHT22;3706;49.198;7.064;2022-08-03T10:14:08;44.40;33.80
7331;DHT22;3706;49.198;7.064;2022-08-03T10:16:36;44.50;34.00
7331;DHT22;3706;49.198;7.064;2022-08-03T10:19:06;45.00;33.50
7331;DHT22;3706;49.198;7.064;2022-08-03T10:21:36;45.10;33.00
7331;DHT22;3706;49.198;7.064;2022-08-03T10:24:06;45.00;32.90
7331;DHT22;3706;49.198;7.064;2022-08-03T10:26:37;45.00;32.80
7331;DHT22;3706;49.198;7.064;2022-08-03T10:29:06;45.10;32.70
7331;DHT22;3706;49.198;7.064;2022-08-03T10:31:38;45.00;32.70
7331;DHT22;3706;49.198;7.064;2022-08-03T10:34:10;44.80;33.20
7331;DHT22;3706;49.198;7.064;2022-08-03T10:36:41;44.50;33.70
7331;DHT22;3706;49.198;7.064;2022-08-03T10:39:12;44.40;34.10
7331;DHT22;3706;49.198;7.064;2022-08-03T10:41:41;44.30;33.80
7331;DHT22;3706;49.198;7.064;2022-08-03T10:44:16;44.70;33.20
7331;DHT22;3706;49.198;7.064;2022-08-03T10:46:45;45.10;32.80
7331;DHT22;3706;49.198;7.064;2022-08-03T10:49:16;45.30;32.80
7331;DHT22;3706;49.198;7.064;2022-08-03T10:51:45;45.30;32.10
7331;DHT22;3706;49.198;7.064;2022-08-03T10:54:38;44.30;33.20
7331;DHT22;3706;49.198;7.064;2022-08-03T10:57:46;43.30;33.90
7331;DHT22;3706;49.198;7.064;2022-08-03T11:00:14;42.90;34.50
7331;DHT22;3706;49.198;7.064;2022-08-03T11:03:07;42.30;35.00
7331;DHT22;3706;49.198;7.064;2022-08-03T11:05:37;41.70;35.80
7331;DHT22;3706;49.198;7.064;2022-08-03T11:08:18;41.40;36.10
7331;DHT22;3706;49.198;7.064;2022-08-03T11:10:47;41.50;35.90
7331;DHT22;3706;49.198;7.064;2022-08-03T11:13:16;41.80;35.90
7331;DHT22;3706;49.198;7.064;2022-08-03T11:15:45;42.40;35.70
7331;DHT22;3706;49.198;7.064;2022-08-03T11:18:13;42.80;35.60
7331;DHT22;3706;49.198;7.064;2022-08-03T11:20:46;43.30;35.00
7331;DHT22;3706;49.198;7.064;2022-08-03T11:23:14;43.70;34.50
7331;DHT22;3706;49.198;7.064;2022-08-03T11:26:14;44.00;34.20
7331;DHT22;3706;49.198;7.064;2022-08-03T11:28:42;44.20;33.40
7331;DHT22;3706;49.198;7.064;2022-08-03T11:34:21;44.80;32.30
7331;DHT22;3706;49.198;7.064;2022-08-03T11:37:17;45.00;32.70
7331;DHT22;3706;49.198;7.064;2022-08-03T11:39:46;44.60;33.20
7331;DHT22;3706;49.198;7.064;2022-08-03T11:42:43;44.40;33.20
7331;DHT22;3706;49.198;7.064;2022-08-03T11:45:13;44.30;33.60
7331;DHT22;3706;49.198;7.064;2022-08-03T11:47:41;44.60;33.00
7331;DHT22;3706;49.198;7.064;2022-08-03T11:50:09;44.60;33.20
7331;DHT22;3706;49.198;7.064;2022-08-03T11:52:40;44.80;32.80
7331;DHT22;3706;49.198;7.064;2022-08-03T11:55:16;45.10;32.30
7331;DHT22;3706;49.198;7.064;2022-08-03T11:57:46;45.50;31.70
7331;DHT22;3706;49.198;7.064;2022-08-03T12:00:26;45.60;31.50
7331;DHT22;3706;49.198;7.064;2022-08-03T12:02:55;45.50;31.80
7331;DHT22;3706;49.198;7.064;2022-08-03T12:05:36;45.50;31.80
7331;DHT22;3706;49.198;7.064;2022-08-03T12:08:04;45.30;32.30
7331;DHT22;3706;49.198;7.064;2022-08-03T12:10:31;44.90;32.30
7331;DHT22;3706;49.198;7.064;2022-08-03T12:13:00;44.30;32.90
7331;DHT22;3706;49.198;7.064;2022-08-03T12:15:31;43.80;34.00
7331;DHT22;3706;49.198;7.064;2022-08-03T12:17:59;43.60;33.50
7331;DHT22;3706;49.198;7.064;2022-08-03T12:20:28;43.30;33.80
7331;DHT22;3706;49.198;7.064;2022-08-03T12:23:02;43.00;34.20
7331;DHT22;3706;49.198;7.064;2022-08-03T12:25:30;43.00;33.90
7331;DHT22;3706;49.198;7.064;2022-08-03T12:28:08;42.90;34.30
7331;DHT22;3706;49.198;7.064;2022-08-03T12:30:36;42.60;34.00
7331;DHT22;3706;49.198;7.064;2022-08-03T12:33:19;42.50;34.10
7331;DHT22;3706;49.198;7.064;2022-08-03T12:35:48;42.40;34.80
7331;DHT22;3706;49.198;7.064;2022-08-03T12:38:20;42.40;34.80
7331;DHT22;3706;49.198;7.064;2022-08-03T12:41:03;42.20;34.60
7331;DHT22;3706;49.198;7.064;2022-08-03T12:43:32;42.20;34.80
7331;DHT22;3706;49.198;7.064;2022-08-03T12:46:13;42.40;34.50
7331;DHT22;3706;49.198;7.064;2022-08-03T12:49:00;42.40;34.10
7331;DHT22;3706;49.198;7.064;2022-08-03T12:51:29;42.10;34.60
7331;DHT22;3706;49.198;7.064;2022-08-03T12:53:58;41.60;35.20
7331;DHT22;3706;49.198;7.064;2022-08-03T12:56:26;41.50;35.50
7331;DHT22;3706;49.198;7.064;2022-08-03T12:58:54;41.60;35.20
7331;DHT22;3706;49.198;7.064;2022-08-03T13:01:22;41.70;35.20
7331;DHT22;3706;49.198;7.064;2022-08-03T13:03:52;41.70;35.40
7331;DHT22;3706;49.198;7.064;2022-08-03T13:06:21;41.40;36.20
7331;DHT22;3706;49.198;7.064;2022-08-03T13:08:49;41.20;35.80
7331;DHT22;3706;49.198;7.064;2022-08-03T13:11:21;41.20;35.70
7331;DHT22;3706;49.198;7.064;2022-08-03T13:13:49;41.20;35.80
7331;DHT22;3706;49.198;7.064;2022-08-03T13:16:17;41.20;36.00
7331;DHT22;3706;49.198;7.064;2022-08-03T13:18:46;41.30;36.70
7331;DHT22;3706;49.198;7.064;2022-08-03T13:21:13;41.40;35.80
7331;DHT22;3706;49.198;7.064;2022-08-03T13:23:41;41.50;35.20
7331;DHT22;3706;49.198;7.064;2022-08-03T13:26:09;41.70;35.50
7331;DHT22;3706;49.198;7.064;2022-08-03T13:28:36;41.60;35.20
7331;DHT22;3706;49.198;7.064;2022-08-03T13:31:03;41.40;35.50
7331;DHT22;3706;49.198;7.064;2022-08-03T13:33:32;41.10;35.90
7331;DHT22;3706;49.198;7.064;2022-08-03T13:35:59;40.60;36.20
7331;DHT22;3706;49.198;7.064;2022-08-03T13:38:26;40.10;36.50
7331;DHT22;3706;49.198;7.064;2022-08-03T13:40:53;39.70;37.60
7331;DHT22;3706;49.198;7.064;2022-08-03T13:43:20;39.40;38.80
7331;DHT22;3706;49.198;7.064;2022-08-03T13:45:47;39.30;38.10
7331;DHT22;3706;49.198;7.064;2022-08-03T13:48:17;39.20;38.40
7331;DHT22;3706;49.198;7.064;2022-08-03T13:50:45;39.30;38.20
7331;DHT22;3706;49.198;7.064;2022-08-03T13:53:12;39.10;38.50
7331;DHT22;3706;49.198;7.064;2022-08-03T13:55:40;39.00;39.00
7331;DHT22;3706;49.198;7.064;2022-08-03T13:58:07;38.70;39.20
7331;DHT22;3706;49.198;7.064;2022-08-03T14:00:37;38.50;39.10
7331;DHT22;3706;49.198;7.064;2022-08-03T14:03:04;38.30;39.50
7331;DHT22;3706;49.198;7.064;2022-08-03T14:05:32;38.10;39.60
7331;DHT22;3706;49.198;7.064;2022-08-03T14:08:00;38.00;40.00
7331;DHT22;3706;49.198;7.064;2022-08-03T14:10:28;37.90;40.20
7331;DHT22;3706;49.198;7.064;2022-08-03T14:12:59;37.80;40.20
7331;DHT22;3706;49.198;7.064;2022-08-03T14:15:26;37.70;40.50
7331;DHT22;3706;49.198;7.064;2022-08-03T14:17:53;37.70;40.10
7331;DHT22;3706;49.198;7.064;2022-08-03T14:20:21;37.80;40.60
7331;DHT22;3706;49.198;7.064;2022-08-03T14:22:48;37.90;39.70
7331;DHT22;3706;49.198;7.064;2022-08-03T14:25:16;37.90;39.90
7331;DHT22;3706;49.198;7.064;2022-08-03T14:27:43;37.90;40.10
7331;DHT22;3706;49.198;7.064;2022-08-03T14:30:11;37.70;41.30
7331;DHT22;3706;49.198;7.064;2022-08-03T14:32:42;37.50;40.80
7331;DHT22;3706;49.198;7.064;2022-08-03T14:35:11;37.30;40.60
7331;DHT22;3706;49.198;7.064;2022-08-03T14:37:38;37.20;40.80
7331;DHT22;3706;49.198;7.064;2022-08-03T14:40:06;37.10;40.80
7331;DHT22;3706;49.198;7.064;2022-08-03T14:42:34;37.00;41.00
7331;DHT22;3706;49.198;7.064;2022-08-03T14:45:02;36.70;41.10
7331;DHT22;3706;49.198;7.064;2022-08-03T14:47:29;36.50;41.40
7331;DHT22;3706;49.198;7.064;2022-08-03T14:49:56;36.50;41.50
7331;DHT22;3706;49.198;7.064;2022-08-03T14:52:23;36.60;41.80
7331;DHT22;3706;49.198;7.064;2022-08-03T14:54:50;36.60;41.70
7331;DHT22;3706;49.198;7.064;2022-08-03T14:57:17;36.60;41.70
7331;DHT22;3706;49.198;7.064;2022-08-03T14:59:45;36.70;41.60
7331;DHT22;3706;49.198;7.064;2022-08-03T15:02:12;36.60;41.60
7331;DHT22;3706;49.198;7.064;2022-08-03T15:04:39;36.50;41.50
7331;DHT22;3706;49.198;7.064;2022-08-03T15:07:06;36.50;41.40
7331;DHT22;3706;49.198;7.064;2022-08-03T15:09:33;36.40;42.30
7331;DHT22;3706;49.198;7.064;2022-08-03T15:12:03;36.30;41.80
7331;DHT22;3706;49.198;7.064;2022-08-03T15:14:31;36.20;42.00
7331;DHT22;3706;49.198;7.064;2022-08-03T15:16:59;36.10;41.60
7331;DHT22;3706;49.198;7.064;2022-08-03T15:19:26;36.00;41.80
7331;DHT22;3706;49.198;7.064;2022-08-03T15:21:53;35.90;42.40
7331;DHT22;3706;49.198;7.064;2022-08-03T15:24:20;35.90;42.40
7331;DHT22;3706;49.198;7.064;2022-08-03T15:26:47;36.00;42.20
7331;DHT22;3706;49.198;7.064;2022-08-03T15:29:14;36.10;42.30
7331;DHT22;3706;49.198;7.064;2022-08-03T15:31:41;36.20;42.90
7331;DHT22;3706;49.198;7.064;2022-08-03T15:34:09;36.30;43.40
7331;DHT22;3706;49.198;7.064;2022-08-03T15:36:37;36.30;42.00
7331;DHT22;3706;49.198;7.064;2022-08-03T15:39:04;36.30;42.10
7331;DHT22;3706;49.198;7.064;2022-08-03T15:41:31;36.30;42.50
7331;DHT22;3706;49.198;7.064;2022-08-03T15:44:00;36.30;42.70
7331;DHT22;3706;49.198;7.064;2022-08-03T15:46:27;36.20;42.30
7331;DHT22;3706;49.198;7.064;2022-08-03T15:48:54;36.00;42.20
7331;DHT22;3706;49.198;7.064;2022-08-03T15:51:25;35.80;42.20
7331;DHT22;3706;49.198;7.064;2022-08-03T15:53:52;35.70;43.20
7331;DHT22;3706;49.198;7.064;2022-08-03T15:56:20;35.50;42.40
7331;DHT22;3706;49.198;7.064;2022-08-03T15:58:47;35.40;44.00
7331;DHT22;3706;49.198;7.064;2022-08-03T16:01:14;35.40;43.90
7331;DHT22;3706;49.198;7.064;2022-08-03T16:03:41;35.30;43.90
7331;DHT22;3706;49.198;7.064;2022-08-03T16:06:08;35.30;43.50
7331;DHT22;3706;49.198;7.064;2022-08-03T16:08:39;35.30;44.20
7331;DHT22;3706;49.198;7.064;2022-08-03T16:11:09;35.20;42.80
7331;DHT22;3706;49.198;7.064;2022-08-03T16:13:36;35.20;43.30
7331;DHT22;3706;49.198;7.064;2022-08-03T16:16:03;35.20;44.20
7331;DHT22;3706;49.198;7.064;2022-08-03T16:18:30;35.10;44.20
7331;DHT22;3706;49.198;7.064;2022-08-03T16:20:58;35.20;43.30
7331;DHT22;3706;49.198;7.064;2022-08-03T16:23:25;35.10;43.30